createdAt,value
2022-09-06T00:01:13.205Z,23.42
2022-09-06T00:03:41.011Z,21.17
2022-09-06T00:06:09.902Z,20.90
2022-09-06T00:08:37.585Z,20.13
2022-09-06T00:11:05.244Z,23.20
2022-09-06T00:13:32.615Z,23.23
2022-09-06T00:16:06.365Z,22.63
2022-09-06T00:18:36.992Z,21.85
2022-09-06T00:21:04.800Z,22.67
2022-09-06T00:23:32.338Z,24.02
2022-09-06T00:26:03.713Z,20.98
2022-09-06T00:28:31.189Z,19.50
2022-09-06T00:30:58.778Z,19.50
2022-09-06T00:33:26.119Z,22.30
2022-09-06T00:36:00.506Z,21.90
2022-09-06T00:38:28.091Z,20.92
2022-09-06T00:40:55.173Z,19.55
2022-09-06T00:43:22.459Z,19.20
2022-09-06T00:45:50.028Z,18.90
2022-09-06T00:48:17.755Z,18.83
2022-09-06T00:50:46.510Z,18.63
2022-09-06T00:53:15.705Z,22.08
2022-09-06T00:55:43.517Z,21.63
2022-09-06T00:58:11.019Z,21.15
2022-09-06T01:00:38.706Z,20.15
2022-09-06T01:03:07.347Z,21.83
2022-09-06T01:05:42.797Z,23.85
2022-09-06T01:10:58.977Z,19.50
2022-09-06T01:13:37.803Z,19.95
2022-09-06T01:16:13.027Z,20.38
2022-09-06T01:19:01.395Z,20.23
2022-09-06T01:21:40.743Z,21.00
2022-09-06T01:24:49.771Z,19.38
2022-09-06T01:27:50.235Z,19.30
2022-09-06T01:30:20.655Z,22.73
2022-09-06T01:32:57.461Z,19.55
2022-09-06T01:35:31.431Z,19.73
2022-09-06T01:38:01.113Z,20.58
2022-09-06T01:40:29.613Z,22.77
2022-09-06T01:42:58.135Z,21.27
2022-09-06T01:45:37.428Z,19.88
2022-09-06T01:48:11.693Z,18.75
2022-09-06T01:50:59.384Z,24.00
2022-09-06T01:53:46.074Z,23.77
2022-09-06T01:56:27.359Z,21.00
2022-09-06T01:59:15.699Z,19.00
2022-09-06T02:01:53.823Z,21.55
2022-09-06T02:04:25.534Z,19.15
2022-09-06T02:07:00.041Z,23.00
2022-09-06T02:09:31.971Z,17.85
2022-09-06T02:12:02.076Z,18.73
2022-09-06T02:14:34.423Z,19.17
2022-09-06T02:17:05.078Z,20.15
2022-09-06T02:19:36.475Z,24.60
2022-09-06T02:22:08.473Z,20.58
2022-09-06T02:24:37.918Z,19.25
2022-09-06T02:27:06.076Z,20.70
2022-09-06T02:29:34.878Z,21.77
2022-09-06T02:32:11.992Z,20.60
2022-09-06T02:34:41.462Z,21.85
2022-09-06T02:37:09.596Z,20.88
2022-09-06T02:39:37.205Z,21.85
2022-09-06T02:42:06.221Z,21.33
2022-09-06T02:44:33.778Z,18.17
2022-09-06T02:47:01.611Z,20.73
2022-09-06T02:49:31.977Z,18.48
2022-09-06T02:51:59.798Z,19.23
2022-09-06T02:54:27.685Z,17.33
2022-09-06T02:56:55.517Z,19.25
2022-09-06T02:59:22.726Z,18.15
2022-09-06T03:01:50.589Z,20.27
2022-09-06T03:04:17.881Z,22.17
2022-09-06T03:06:47.568Z,19.02
2022-09-06T03:09:15.030Z,19.90
2022-09-06T03:11:42.884Z,21.60
2022-09-06T03:14:11.030Z,16.67
2022-09-06T03:16:38.958Z,18.67
2022-09-06T03:19:06.723Z,21.58
2022-09-06T03:21:34.433Z,19.00
2022-09-06T03:24:04.012Z,20.08
2022-09-06T03:26:32.156Z,22.73
2022-09-06T03:29:00.307Z,26.90
2022-09-06T03:31:27.904Z,19.52
2022-09-06T03:33:55.450Z,22.35
2022-09-06T03:36:23.535Z,20.98
2022-09-06T03:38:51.219Z,30.90
2022-09-06T03:41:20.150Z,18.52
2022-09-06T03:43:47.451Z,18.20
2022-09-06T03:46:14.553Z,19.30
2022-09-06T03:48:41.903Z,19.85
2022-09-06T03:51:09.063Z,20.77
2022-09-06T03:53:36.501Z,18.67
2022-09-06T03:56:04.315Z,18.17
2022-09-06T03:58:34.788Z,19.95
2022-09-06T04:01:06.857Z,19.30
2022-09-06T04:03:34.540Z,20.50
2022-09-06T04:06:02.177Z,19.95
2022-09-06T04:08:29.641Z,21.20
2022-09-06T04:10:58.770Z,18.60
2022-09-06T04:13:27.854Z,16.65
2022-09-06T04:15:58.913Z,19.13
2022-09-06T04:18:26.225Z,19.05
2022-09-06T04:20:55.514Z,17.10
2022-09-06T04:23:24.185Z,20.90
2022-09-06T04:25:53.522Z,17.75
2022-09-06T04:28:22.504Z,22.73
2022-09-06T04:30:53.456Z,15.88
2022-09-06T04:33:23.673Z,18.50
2022-09-06T04:35:51.229Z,17.88
2022-09-06T04:38:18.780Z,19.02
2022-09-06T04:40:46.221Z,18.95
2022-09-06T04:43:13.691Z,17.80
2022-09-06T04:45:41.262Z,18.38
2022-09-06T04:48:09.170Z,20.45
2022-09-06T04:50:39.000Z,16.58
2022-09-06T04:53:07.405Z,18.58
2022-09-06T04:55:35.520Z,16.45
2022-09-06T04:58:02.672Z,18.38
2022-09-06T05:00:32.221Z,19.27
2022-09-06T05:03:00.790Z,18.77
2022-09-06T05:05:27.989Z,18.23
2022-09-06T05:07:59.006Z,18.52
2022-09-06T05:10:26.495Z,21.05
2022-09-06T05:12:54.897Z,19.05
2022-09-06T05:15:23.649Z,22.50
2022-09-06T05:17:51.223Z,18.73
2022-09-06T05:20:19.025Z,19.05
2022-09-06T05:22:53.601Z,20.08
2022-09-06T05:25:22.378Z,21.15
2022-09-06T05:27:49.740Z,22.85
2022-09-06T05:30:17.886Z,21.80
2022-09-06T05:32:45.603Z,20.08
2022-09-06T05:35:12.973Z,22.30
2022-09-06T05:37:40.137Z,25.58
2022-09-06T05:40:08.770Z,21.58
2022-09-06T05:42:37.525Z,26.02
2022-09-06T05:45:05.277Z,24.83
2022-09-06T05:47:32.822Z,27.45
2022-09-06T05:50:00.177Z,25.00
2022-09-06T05:52:27.967Z,24.98
2022-09-06T05:54:55.508Z,26.20
2022-09-06T05:57:22.951Z,23.52
2022-09-06T05:59:53.766Z,23.80
2022-09-06T06:02:22.059Z,26.55
2022-09-06T06:04:49.488Z,24.85
2022-09-06T06:07:16.656Z,27.40
2022-09-06T06:09:44.761Z,26.50
2022-09-06T06:12:12.510Z,26.42
2022-09-06T06:14:40.019Z,25.58
2022-09-06T06:17:08.945Z,29.00
2022-09-06T06:19:36.605Z,26.42
2022-09-06T06:22:04.383Z,26.52
2022-09-06T06:24:31.644Z,24.67
2022-09-06T06:26:59.405Z,25.23
2022-09-06T06:29:27.207Z,25.65
2022-09-06T06:31:54.903Z,25.00
2022-09-06T06:34:26.105Z,27.90
2022-09-06T06:36:53.935Z,26.98
2022-09-06T06:39:21.829Z,27.52
2022-09-06T06:41:49.281Z,30.23
2022-09-06T06:44:17.159Z,29.17
2022-09-06T06:46:44.679Z,28.65
2022-09-06T06:49:14.408Z,28.88
2022-09-06T06:51:45.144Z,24.45
2022-09-06T06:54:15.431Z,22.88
2022-09-06T06:56:43.388Z,26.05
2022-09-06T06:59:10.877Z,23.25
2022-09-06T07:01:38.527Z,25.50
2022-09-06T07:04:06.263Z,27.33
2022-09-06T07:12:23.269Z,25.30
2022-09-06T07:14:51.054Z,28.20
2022-09-06T07:17:18.925Z,25.13
2022-09-06T07:22:36.031Z,24.15
2022-09-06T07:25:03.768Z,28.35
2022-09-06T07:27:47.749Z,22.70
2022-09-06T07:30:18.446Z,25.45
2022-09-06T07:32:46.565Z,25.55
2022-09-06T07:35:14.333Z,26.48
2022-09-06T07:37:51.861Z,22.70
2022-09-06T07:40:19.719Z,26.20
2022-09-06T07:42:47.547Z,23.33
2022-09-06T07:45:15.150Z,24.55
2022-09-06T07:47:58.108Z,26.83
2022-09-06T07:53:23.031Z,23.85
2022-09-06T07:55:54.125Z,22.88
2022-09-06T07:58:21.661Z,24.10
2022-09-06T08:00:49.232Z,23.98
2022-09-06T08:03:16.649Z,25.40
2022-09-06T08:11:23.183Z,21.98
2022-09-06T08:13:51.059Z,22.25
2022-09-06T08:16:18.748Z,22.55
2022-09-06T08:18:50.564Z,21.30
2022-09-06T08:21:18.143Z,24.27
2022-09-06T08:23:49.352Z,22.30
2022-09-06T08:26:16.832Z,22.10
2022-09-06T08:28:44.711Z,21.73
2022-09-06T08:31:13.666Z,21.52
2022-09-06T08:33:41.940Z,24.20
2022-09-06T08:36:10.359Z,25.17
2022-09-06T08:38:38.413Z,29.33
2022-09-06T08:41:15.683Z,27.67
2022-09-06T08:46:46.514Z,21.70
2022-09-06T08:49:14.157Z,23.73
2022-09-06T08:52:15.652Z,23.45
2022-09-06T08:54:49.193Z,22.42
2022-09-06T08:57:38.184Z,24.85
2022-09-06T09:00:11.054Z,23.85
2022-09-06T09:02:44.423Z,26.55
2022-09-06T09:05:22.429Z,27.88
2022-09-06T09:07:56.032Z,23.20
2022-09-06T09:10:29.279Z,26.35
2022-09-06T09:13:04.506Z,23.95
2022-09-06T09:18:00.484Z,18.13
2022-09-06T09:20:28.322Z,17.88
2022-09-06T09:22:56.803Z,18.20
2022-09-06T09:25:25.946Z,17.50
2022-09-06T09:27:56.631Z,18.65
2022-09-06T09:30:48.281Z,16.20
2022-09-06T09:33:29.925Z,18.02
2022-09-06T09:36:00.528Z,18.95
2022-09-06T09:38:30.561Z,16.02
2022-09-06T09:41:00.611Z,17.88
2022-09-06T09:43:31.676Z,16.42
2022-09-06T09:46:17.500Z,16.63
2022-09-06T09:49:00.738Z,15.85
2022-09-06T09:51:30.061Z,19.95
2022-09-06T09:53:58.550Z,15.18
2022-09-06T09:56:34.389Z,19.20
2022-09-06T09:59:03.224Z,16.40
2022-09-06T10:01:33.308Z,15.02
2022-09-06T10:09:37.442Z,16.23
2022-09-06T10:12:05.951Z,14.73
2022-09-06T10:14:42.122Z,14.68
2022-09-06T10:17:19.833Z,13.25
2022-09-06T10:19:47.714Z,12.55
2022-09-06T10:22:29.877Z,15.20
2022-09-06T10:25:18.451Z,14.57
2022-09-06T10:28:11.385Z,16.17
2022-09-06T10:30:48.805Z,15.45
2022-09-06T10:33:28.520Z,13.38
2022-09-06T10:35:59.240Z,15.27
2022-09-06T10:38:42.751Z,14.77
2022-09-06T10:41:31.693Z,15.50
2022-09-06T10:44:10.752Z,14.70
2022-09-06T10:46:41.141Z,14.63
2022-09-06T10:49:15.767Z,14.60
2022-09-06T10:51:48.651Z,15.32
2022-09-06T10:54:21.642Z,14.82
2022-09-06T10:56:54.057Z,14.23
2022-09-06T11:02:16.981Z,14.00
2022-09-06T11:07:41.449Z,14.40
2022-09-06T11:10:19.349Z,13.68
2022-09-06T11:12:54.578Z,13.55
2022-09-06T11:15:26.225Z,13.55
2022-09-06T11:17:58.260Z,13.15
2022-09-06T11:20:35.136Z,14.07
2022-09-06T11:23:16.639Z,13.57
2022-09-06T11:26:07.554Z,13.60
2022-09-06T11:28:40.544Z,12.38
2022-09-06T11:34:09.782Z,12.88
2022-09-06T11:36:47.234Z,11.80
2022-09-06T11:42:40.439Z,13.10
2022-09-06T11:45:17.913Z,11.35
2022-09-06T11:47:48.038Z,12.35
2022-09-06T11:51:02.576Z,14.10
2022-09-06T11:53:55.422Z,13.23
2022-09-06T11:56:32.184Z,11.80
2022-09-06T11:59:07.380Z,11.38
2022-09-06T12:01:39.350Z,10.82
2022-09-06T12:04:10.741Z,14.05
2022-09-06T12:06:41.723Z,11.77
2022-09-06T12:09:44.522Z,11.38
2022-09-06T12:12:16.337Z,11.52
2022-09-06T12:14:45.928Z,10.73
2022-09-06T12:17:24.358Z,12.13
2022-09-06T12:19:54.400Z,10.20
2022-09-06T12:22:52.310Z,11.10
2022-09-06T12:26:03.621Z,10.88
2022-09-06T12:28:41.257Z,11.52
2022-09-06T12:31:27.070Z,11.50
2022-09-06T12:33:55.443Z,11.60
2022-09-06T12:36:26.120Z,13.15
2022-09-06T12:38:59.124Z,11.05
2022-09-06T12:41:30.414Z,12.45
2022-09-06T12:44:01.123Z,10.70
2022-09-06T12:46:32.258Z,10.55
2022-09-06T12:49:03.109Z,14.50
2022-09-06T12:51:31.076Z,12.00
2022-09-06T12:54:00.798Z,15.05
2022-09-06T12:56:32.513Z,11.80
2022-09-06T12:59:15.089Z,11.15
2022-09-06T13:01:49.424Z,11.32
2022-09-06T13:04:27.704Z,11.63
2022-09-06T13:06:57.146Z,10.48
2022-09-06T13:09:27.358Z,12.00
2022-09-06T13:12:04.970Z,10.48
2022-09-06T13:14:34.735Z,11.48
2022-09-06T13:17:03.560Z,10.07
2022-09-06T13:19:34.733Z,9.93
2022-09-06T13:22:04.360Z,10.02
2022-09-06T13:24:47.045Z,13.20
2022-09-06T13:27:35.379Z,13.27
2022-09-06T13:30:06.269Z,10.55
2022-09-06T13:32:36.009Z,11.35
2022-09-06T13:35:04.294Z,12.60
2022-09-06T13:37:34.560Z,11.00
2022-09-06T13:40:01.950Z,9.35
2022-09-06T13:42:33.155Z,9.93
2022-09-06T13:45:21.786Z,10.52
2022-09-06T13:47:49.609Z,11.32
2022-09-06T13:50:19.381Z,12.32
2022-09-06T13:52:47.244Z,12.98
2022-09-06T13:55:17.218Z,12.68
2022-09-06T13:57:46.432Z,10.63
2022-09-06T14:00:15.244Z,13.00
2022-09-06T14:02:43.855Z,10.18
2022-09-06T14:05:11.684Z,10.23
2022-09-06T14:07:39.075Z,9.93
2022-09-06T14:10:06.895Z,10.65
2022-09-06T14:12:34.653Z,10.57
2022-09-06T14:15:04.214Z,10.25
2022-09-06T14:17:32.336Z,10.75
2022-09-06T14:19:59.987Z,12.43
2022-09-06T14:22:27.694Z,10.45
2022-09-06T14:24:55.890Z,10.93
2022-09-06T14:27:24.051Z,10.68
2022-09-06T14:29:51.626Z,12.75
2022-09-06T14:32:22.705Z,11.00
2022-09-06T14:34:50.708Z,12.52
2022-09-06T14:37:18.556Z,9.88
2022-09-06T14:39:46.498Z,11.63
2022-09-06T14:42:14.584Z,9.98
2022-09-06T14:44:42.395Z,12.80
2022-09-06T14:47:10.283Z,10.02
2022-09-06T14:49:40.025Z,11.25
2022-09-06T14:52:07.631Z,12.45
2022-09-06T14:54:36.332Z,12.75
2022-09-06T14:57:04.373Z,10.93
2022-09-06T14:59:31.749Z,10.82
2022-09-06T15:01:59.673Z,10.05
2022-09-06T15:04:27.199Z,11.13
2022-09-06T15:06:56.842Z,9.98
2022-09-06T15:09:24.355Z,11.63
2022-09-06T15:11:53.403Z,9.98
2022-09-06T15:14:23.257Z,12.98
2022-09-06T15:16:55.941Z,12.77
2022-09-06T15:19:23.824Z,11.32
2022-09-06T15:21:51.870Z,11.68
2022-09-06T15:24:21.448Z,11.80
2022-09-06T15:26:48.820Z,9.55
2022-09-06T15:29:16.680Z,11.07
2022-09-06T15:31:46.107Z,11.35
2022-09-06T15:34:13.939Z,10.43
2022-09-06T15:36:41.796Z,11.60
2022-09-06T15:39:09.323Z,11.48
2022-09-06T15:41:39.034Z,11.32
2022-09-06T15:44:09.075Z,10.25
2022-09-06T15:46:46.697Z,11.23
2022-09-06T15:49:16.801Z,10.82
2022-09-06T15:51:45.242Z,10.90
2022-09-06T15:54:14.902Z,10.65
2022-09-06T15:56:46.562Z,10.20
2022-09-06T15:59:14.101Z,12.82
2022-09-06T16:01:42.041Z,11.73
2022-09-06T16:04:09.733Z,10.68
2022-09-06T16:06:39.197Z,11.60
2022-09-06T16:09:10.176Z,11.02
2022-09-06T16:11:38.084Z,12.02
2022-09-06T16:14:10.231Z,13.98
2022-09-06T16:16:37.926Z,12.70
2022-09-06T16:19:05.768Z,10.35
2022-09-06T16:21:35.122Z,12.27
2022-09-06T16:24:04.674Z,10.80
2022-09-06T16:26:34.721Z,13.57
2022-09-06T16:29:02.902Z,10.80
2022-09-06T16:31:35.292Z,11.38
2022-09-06T16:34:05.929Z,10.13
2022-09-06T16:36:33.908Z,11.65
2022-09-06T16:39:01.295Z,14.40
2022-09-06T16:41:34.797Z,10.43
2022-09-06T16:44:03.715Z,14.68
2022-09-06T16:46:33.147Z,14.98
2022-09-06T16:49:02.262Z,9.70
2022-09-06T16:51:31.230Z,12.63
2022-09-06T16:54:00.341Z,10.15
2022-09-06T16:56:30.363Z,9.80
2022-09-06T16:58:59.208Z,12.20
2022-09-06T17:01:28.265Z,11.57
2022-09-06T17:03:57.393Z,9.85
2022-09-06T17:06:26.424Z,10.05
2022-09-06T17:08:55.883Z,11.30
2022-09-06T17:11:23.696Z,10.63
2022-09-06T17:13:52.826Z,12.00
2022-09-06T17:16:22.405Z,13.02
2022-09-06T17:18:50.444Z,10.57
2022-09-06T17:21:20.800Z,15.13
2022-09-06T17:23:48.353Z,11.40
2022-09-06T17:26:16.218Z,10.68
2022-09-06T17:28:44.105Z,13.13
2022-09-06T17:31:12.368Z,14.35
2022-09-06T17:33:40.847Z,12.50
2022-09-06T17:36:11.761Z,18.20
2022-09-06T17:38:41.128Z,16.60
2022-09-06T17:41:09.035Z,12.70
2022-09-06T17:43:37.880Z,17.83
2022-09-06T17:46:06.131Z,16.85
2022-09-06T17:48:34.499Z,13.63
2022-09-06T17:51:06.721Z,20.13
2022-09-06T17:53:35.485Z,14.75
2022-09-06T17:56:07.666Z,12.63
2022-09-06T17:58:37.590Z,14.38
2022-09-06T18:01:06.871Z,11.43
2022-09-06T18:03:34.174Z,9.95
2022-09-06T18:06:05.995Z,11.48
2022-09-06T18:08:33.861Z,12.00
2022-09-06T18:11:09.789Z,11.73
2022-09-06T18:13:37.390Z,11.55
2022-09-06T18:16:06.120Z,12.93
2022-09-06T18:18:36.020Z,13.88
2022-09-06T18:21:05.131Z,13.43
2022-09-06T18:23:33.270Z,9.98
2022-09-06T18:26:03.830Z,12.05
2022-09-06T18:28:34.450Z,11.98
2022-09-06T18:31:05.934Z,17.30
2022-09-06T18:33:33.708Z,13.48
2022-09-06T18:36:01.912Z,12.55
2022-09-06T18:38:30.003Z,12.02
2022-09-06T18:40:59.508Z,12.00
2022-09-06T18:43:29.539Z,13.98
2022-09-06T18:46:04.507Z,14.52
2022-09-06T18:48:33.919Z,10.65
2022-09-06T18:51:04.414Z,14.15
2022-09-06T18:53:32.451Z,12.75
2022-09-06T18:56:00.208Z,12.10
2022-09-06T18:58:29.180Z,12.02
2022-09-06T19:01:06.235Z,14.48
2022-09-06T19:03:35.320Z,12.40
2022-09-06T19:06:04.897Z,13.70
2022-09-06T19:08:33.903Z,14.77
2022-09-06T19:11:03.321Z,13.90
2022-09-06T19:13:31.624Z,14.88
2022-09-06T19:16:01.156Z,13.48
2022-09-06T19:18:30.372Z,13.65
2022-09-06T19:20:58.510Z,11.63
2022-09-06T19:23:27.672Z,14.32
2022-09-06T19:26:00.318Z,15.43
2022-09-06T19:28:30.185Z,11.30
2022-09-06T19:30:58.750Z,11.85
2022-09-06T19:33:31.081Z,12.63
2022-09-06T19:36:11.657Z,12.70
2022-09-06T19:39:01.969Z,13.55
2022-09-06T19:41:30.518Z,10.60
2022-09-06T19:44:00.049Z,13.50
2022-09-06T19:46:28.684Z,13.60
2022-09-06T19:48:58.237Z,14.88
2022-09-06T19:51:28.942Z,13.15
2022-09-06T19:53:58.061Z,12.48
2022-09-06T19:56:28.166Z,13.52
2022-09-06T19:58:57.265Z,17.85
2022-09-06T20:01:26.739Z,13.23
2022-09-06T20:03:54.338Z,12.88
2022-09-06T20:06:23.014Z,13.55
2022-09-06T20:08:54.230Z,13.75
2022-09-06T20:11:24.795Z,15.20
2022-09-06T20:13:52.817Z,13.13
2022-09-06T20:16:22.110Z,19.98
2022-09-06T20:18:50.226Z,13.20
2022-09-06T20:21:19.319Z,16.58
2022-09-06T20:23:50.614Z,13.70
2022-09-06T20:26:21.724Z,12.23
2022-09-06T20:28:50.217Z,14.27
2022-09-06T20:31:18.882Z,14.77
2022-09-06T20:33:49.745Z,13.77
2022-09-06T20:36:19.320Z,12.85
2022-09-06T20:38:49.267Z,12.32
2022-09-06T20:41:20.790Z,11.57
2022-09-06T20:43:52.929Z,12.15
2022-09-06T20:46:22.624Z,15.93
2022-09-06T20:48:51.686Z,12.30
2022-09-06T20:51:21.605Z,13.13
2022-09-06T20:53:52.788Z,12.45
2022-09-06T20:56:24.486Z,14.25
2022-09-06T20:58:53.999Z,12.77
2022-09-06T21:01:24.329Z,15.15
2022-09-06T21:03:53.440Z,15.70
2022-09-06T21:06:21.960Z,16.42
2022-09-06T21:08:50.390Z,14.80
2022-09-06T21:11:19.250Z,17.67
2022-09-06T21:13:53.135Z,16.92
2022-09-06T21:16:24.595Z,14.43
2022-09-06T21:18:53.620Z,15.60
2022-09-06T21:21:21.910Z,18.23
2022-09-06T21:23:49.275Z,14.98
2022-09-06T21:26:18.046Z,14.00
2022-09-06T21:28:48.518Z,15.30
2022-09-06T21:31:19.914Z,13.75
2022-09-06T21:33:50.245Z,17.30
2022-09-06T21:36:19.666Z,17.35
2022-09-06T21:38:48.782Z,19.15
2022-09-06T21:41:19.531Z,15.10
2022-09-06T21:43:47.577Z,20.65
2022-09-06T21:46:19.069Z,20.02
2022-09-06T21:48:48.862Z,13.73
2022-09-06T21:51:18.582Z,15.60
2022-09-06T21:53:48.328Z,18.92
2022-09-06T21:56:16.163Z,13.38
2022-09-06T21:58:43.745Z,13.73
2022-09-06T22:01:11.273Z,11.20
2022-09-06T22:03:41.685Z,14.85
2022-09-06T22:06:11.183Z,15.23
2022-09-06T22:08:38.572Z,14.15
2022-09-06T22:11:11.219Z,10.55
2022-09-06T22:13:39.067Z,11.05
2022-09-06T22:16:08.189Z,10.30
2022-09-06T22:18:36.471Z,10.98
2022-09-06T22:21:07.678Z,10.68
2022-09-06T22:23:36.501Z,12.50
2022-09-06T22:26:07.227Z,11.48
2022-09-06T22:28:35.666Z,10.98
2022-09-06T22:31:03.605Z,12.38
2022-09-06T22:33:31.671Z,11.27
2022-09-06T22:35:59.622Z,10.63
2022-09-06T22:38:29.653Z,10.30
2022-09-06T22:40:57.762Z,11.55
2022-09-06T22:43:26.401Z,11.65
2022-09-06T22:45:53.767Z,10.43
2022-09-06T22:48:21.236Z,10.70
2022-09-06T22:50:48.794Z,10.13
2022-09-06T22:53:16.826Z,12.38
2022-09-06T22:55:49.928Z,11.02
2022-09-06T22:58:17.745Z,10.95
2022-09-06T23:00:45.734Z,10.07
2022-09-06T23:03:13.159Z,11.05
2022-09-06T23:05:40.666Z,11.30
2022-09-06T23:08:07.842Z,11.57
2022-09-06T23:10:40.535Z,11.20
2022-09-06T23:13:11.838Z,10.40
2022-09-06T23:15:40.352Z,13.27
2022-09-06T23:18:08.826Z,11.40
2022-09-06T23:20:36.640Z,11.95
2022-09-06T23:23:03.982Z,13.88
2022-09-06T23:25:31.668Z,12.88
2022-09-06T23:27:59.541Z,10.38
2022-09-06T23:30:29.306Z,11.80
2022-09-06T23:32:57.129Z,12.82
2022-09-06T23:35:24.972Z,12.30
2022-09-06T23:37:52.463Z,10.45
2022-09-06T23:40:21.657Z,12.85
2022-09-06T23:42:49.132Z,12.85
2022-09-06T23:45:16.752Z,13.88
2022-09-06T23:47:46.102Z,12.95
2022-09-06T23:50:13.816Z,11.70
2022-09-06T23:52:41.072Z,11.98
2022-09-06T23:55:09.287Z,12.60
2022-09-06T23:57:37.100Z,11.75
